createdAt,value
2023-01-30T00:01:43.440Z,98303.78
2023-01-30T00:04:29.105Z,98240.25
2023-01-30T00:07:15.067Z,98292.16
2023-01-30T00:10:00.401Z,98281.28
2023-01-30T00:12:45.767Z,98290.19
2023-01-30T00:15:31.175Z,98208.13
2023-01-30T00:18:17.330Z,98041.88
2023-01-30T00:21:06.608Z,98228.41
2023-01-30T00:23:52.198Z,98238.78
2023-01-30T00:26:37.614Z,98153.28
2023-01-30T00:29:22.835Z,98053.72
2023-01-30T00:32:09.008Z,98240.75
2023-01-30T00:34:54.431Z,98148.31
2023-01-30T00:37:39.691Z,98262.97
2023-01-30T00:40:27.300Z,98036.69
2023-01-30T00:43:33.518Z,98263.00
2023-01-30T00:46:50.405Z,98251.56
2023-01-30T00:49:37.436Z,98037.69
2023-01-30T00:52:22.856Z,98066.06
2023-01-30T00:55:09.795Z,98237.72
2023-01-30T00:57:55.403Z,98014.00
2023-01-30T01:00:41.437Z,98225.41
2023-01-30T01:03:26.690Z,98147.28
2023-01-30T01:06:12.053Z,98172.50
2023-01-30T01:08:57.920Z,98011.03
2023-01-30T01:11:43.286Z,98015.72
2023-01-30T01:14:28.571Z,98241.69
2023-01-30T01:17:13.959Z,97993.00
2023-01-30T01:19:59.384Z,98153.97
2023-01-30T01:22:45.595Z,98021.41
2023-01-30T01:25:31.598Z,98186.78
2023-01-30T01:28:21.656Z,98145.59
2023-01-30T01:31:09.259Z,98012.03
2023-01-30T01:33:54.572Z,98007.31
2023-01-30T01:36:53.343Z,97969.06
2023-01-30T01:39:58.153Z,98179.66
2023-01-30T01:42:45.762Z,97967.84
2023-01-30T01:45:31.592Z,97947.34
2023-01-30T01:48:26.353Z,98106.81
2023-01-30T01:51:19.399Z,98063.84
2023-01-30T01:54:07.690Z,97924.19
2023-01-30T01:56:53.692Z,98086.53
2023-01-30T01:59:46.151Z,98152.75
2023-01-30T02:02:34.697Z,98075.69
2023-01-30T02:05:21.077Z,98121.84
2023-01-30T02:08:14.334Z,98142.34
2023-01-30T02:11:05.643Z,98159.63
2023-01-30T02:13:51.845Z,98124.53
2023-01-30T02:16:39.561Z,98088.72
2023-01-30T02:19:34.854Z,98136.13
2023-01-30T02:22:45.308Z,98074.22
2023-01-30T02:25:33.923Z,98129.47
2023-01-30T02:28:46.958Z,98129.47
2023-01-30T02:31:37.052Z,97866.94
2023-01-30T02:34:24.085Z,98082.00
2023-01-30T02:37:25.442Z,97894.06
2023-01-30T02:40:20.552Z,98069.88
2023-01-30T02:43:16.876Z,98054.09
2023-01-30T02:46:05.215Z,98060.75
2023-01-30T02:49:09.624Z,97878.50
2023-01-30T02:52:00.880Z,98011.63
2023-01-30T02:54:46.297Z,97880.47
2023-01-30T02:57:32.145Z,97871.84
2023-01-30T03:00:29.052Z,98001.31
2023-01-30T03:03:17.654Z,98034.53
2023-01-30T03:06:34.691Z,98031.81
2023-01-30T03:09:30.691Z,97949.19
2023-01-30T03:12:55.075Z,97824.28
2023-01-30T03:15:50.570Z,98036.53
2023-01-30T03:18:36.310Z,97943.28
2023-01-30T03:21:21.838Z,97778.44
2023-01-30T03:24:11.996Z,97957.06
2023-01-30T03:27:05.705Z,97792.94
2023-01-30T03:29:51.466Z,97823.44
2023-01-30T03:32:36.848Z,97901.78
2023-01-30T03:35:22.991Z,97829.06
2023-01-30T03:38:09.395Z,97800.03
2023-01-30T03:40:55.061Z,97762.84
2023-01-30T03:43:40.401Z,97965.28
2023-01-30T03:46:25.780Z,97960.31
2023-01-30T03:49:11.940Z,97946.50
2023-01-30T03:51:57.309Z,97813.00
2023-01-30T03:54:42.726Z,97717.22
2023-01-30T03:57:28.146Z,97772.56
2023-01-30T04:00:14.360Z,97716.97
2023-01-30T04:03:05.998Z,97935.09
2023-01-30T04:05:51.754Z,97896.47
2023-01-30T04:08:37.127Z,97708.34
2023-01-30T04:11:23.554Z,97805.06
2023-01-30T04:14:09.929Z,97867.47
2023-01-30T04:17:05.805Z,97692.75
2023-01-30T04:20:11.785Z,97740.19
2023-01-30T04:23:03.099Z,97839.00
2023-01-30T04:25:49.309Z,97870.81
2023-01-30T04:28:37.741Z,97819.56
2023-01-30T04:31:23.789Z,97898.47
2023-01-30T04:34:16.949Z,97882.69
2023-01-30T04:37:02.164Z,97784.03
2023-01-30T04:39:49.120Z,97822.38
2023-01-30T04:42:35.109Z,97877.72
2023-01-30T04:45:50.722Z,97697.88
2023-01-30T04:48:36.508Z,97811.50
2023-01-30T04:51:21.833Z,97700.38
2023-01-30T04:54:07.202Z,97880.19
2023-01-30T04:56:52.605Z,97747.41
2023-01-30T04:59:37.924Z,97654.34
2023-01-30T05:02:25.915Z,97651.81
2023-01-30T05:05:11.283Z,97728.81
2023-01-30T05:07:56.717Z,97786.50
2023-01-30T05:10:42.165Z,97829.69
2023-01-30T05:13:27.448Z,97615.97
2023-01-30T05:16:15.414Z,97620.13
2023-01-30T05:19:01.204Z,97852.81
2023-01-30T05:21:46.375Z,97617.63
2023-01-30T05:24:31.971Z,97607.84
2023-01-30T05:27:17.591Z,97756.84
2023-01-30T05:30:04.101Z,97611.75
2023-01-30T05:32:49.641Z,97629.44
2023-01-30T05:35:35.285Z,97648.38
2023-01-30T05:38:22.976Z,97591.56
2023-01-30T05:41:10.015Z,97766.59
2023-01-30T05:43:55.218Z,97804.22
2023-01-30T05:46:40.735Z,97619.03
2023-01-30T05:49:25.928Z,97795.47
2023-01-30T05:52:11.304Z,97796.47
2023-01-30T05:54:56.904Z,97763.66
2023-01-30T05:57:42.430Z,97774.25
2023-01-30T06:00:27.957Z,97768.38
2023-01-30T06:03:13.359Z,97766.34
2023-01-30T06:05:58.962Z,97797.13
2023-01-30T06:08:47.329Z,97788.44
2023-01-30T06:11:33.999Z,97625.97
2023-01-30T06:14:20.451Z,97789.94
2023-01-30T06:17:06.061Z,97738.84
2023-01-30T06:19:51.971Z,97751.75
2023-01-30T06:22:40.800Z,97779.97
2023-01-30T06:25:27.403Z,97722.66
2023-01-30T06:28:13.856Z,97788.13
2023-01-30T06:30:59.866Z,97788.84
2023-01-30T06:33:45.867Z,97773.47
2023-01-30T06:36:32.378Z,97789.13
2023-01-30T06:39:17.793Z,97545.97
2023-01-30T06:42:03.118Z,97723.25
2023-01-30T06:44:48.493Z,97727.22
2023-01-30T06:47:34.094Z,97714.13
2023-01-30T06:50:23.148Z,97544.28
2023-01-30T06:53:09.138Z,97766.13
2023-01-30T06:55:54.643Z,97789.81
2023-01-30T06:58:40.089Z,97572.59
2023-01-30T07:01:27.295Z,97726.69
2023-01-30T07:04:14.174Z,97654.31
2023-01-30T07:06:59.520Z,97684.03
2023-01-30T07:09:45.098Z,97510.47
2023-01-30T07:12:31.070Z,97706.00
2023-01-30T07:15:16.849Z,97627.66
2023-01-30T07:18:02.480Z,97472.38
2023-01-30T07:20:49.430Z,97600.81
2023-01-30T07:23:34.831Z,97658.53
2023-01-30T07:26:20.373Z,97645.78
2023-01-30T07:29:06.005Z,97476.13
2023-01-30T07:31:51.936Z,97682.59
2023-01-30T07:34:37.395Z,97634.03
2023-01-30T07:37:22.755Z,97475.94
2023-01-30T07:40:10.329Z,97660.06
2023-01-30T07:43:01.227Z,97639.16
2023-01-30T07:45:47.981Z,97617.69
2023-01-30T07:48:33.505Z,97459.25
2023-01-30T07:51:18.769Z,97630.50
2023-01-30T07:54:04.226Z,97405.63
2023-01-30T07:56:49.901Z,97630.03
2023-01-30T07:59:35.213Z,97527.88
2023-01-30T08:02:20.633Z,97422.81
2023-01-30T08:05:06.389Z,97567.25
2023-01-30T08:07:53.013Z,97622.53
2023-01-30T08:10:39.068Z,97570.22
2023-01-30T08:13:24.538Z,97546.13
2023-01-30T08:16:09.972Z,97578.41
2023-01-30T08:18:55.389Z,97395.13
2023-01-30T08:21:40.644Z,97539.28
2023-01-30T08:24:26.332Z,97583.78
2023-01-30T08:27:11.467Z,97610.69
2023-01-30T08:29:57.332Z,97568.06
2023-01-30T08:32:42.831Z,97480.19
2023-01-30T08:35:28.309Z,97554.22
2023-01-30T08:38:14.996Z,97533.44
2023-01-30T08:41:01.313Z,97533.22
2023-01-30T08:43:46.789Z,97528.16
2023-01-30T08:46:32.544Z,97604.34
2023-01-30T08:49:18.500Z,97437.34
2023-01-30T08:52:04.266Z,97344.13
2023-01-30T08:54:49.614Z,97357.75
2023-01-30T08:57:35.848Z,97527.97
2023-01-30T09:00:21.732Z,97423.97
2023-01-30T09:03:07.552Z,97489.97
2023-01-30T09:05:56.153Z,97515.97
2023-01-30T09:08:42.534Z,97456.56
2023-01-30T09:11:28.039Z,97542.41
2023-01-30T09:14:16.341Z,97536.72
2023-01-30T09:17:02.831Z,97476.78
2023-01-30T09:19:48.319Z,97479.28
2023-01-30T09:22:33.966Z,97311.44
2023-01-30T09:25:19.915Z,97460.00
2023-01-30T09:28:05.608Z,97501.88
2023-01-30T09:30:51.554Z,97476.88
2023-01-30T09:33:36.686Z,97453.38
2023-01-30T09:36:22.528Z,97400.88
2023-01-30T09:39:08.455Z,97461.03
2023-01-30T09:42:00.486Z,97472.13
2023-01-30T09:45:04.941Z,97465.94
2023-01-30T09:47:54.227Z,97455.03
2023-01-30T09:51:02.111Z,97277.34
2023-01-30T09:53:51.070Z,97436.13
2023-01-30T09:56:36.776Z,97236.38
2023-01-30T09:59:30.478Z,97219.03
2023-01-30T10:02:31.592Z,97195.38
2023-01-30T10:05:17.320Z,97367.84
2023-01-30T10:08:39.903Z,97409.47
2023-01-30T10:11:31.355Z,97254.56
2023-01-30T10:14:19.937Z,97388.63
2023-01-30T10:17:46.233Z,97385.22
2023-01-30T10:20:38.899Z,97205.09
2023-01-30T10:23:34.987Z,97397.00
2023-01-30T10:26:24.756Z,97302.59
2023-01-30T10:29:22.918Z,97307.13
2023-01-30T10:32:32.397Z,97341.34
2023-01-30T10:35:26.896Z,97293.66
2023-01-30T10:38:21.914Z,97346.53
2023-01-30T10:41:26.794Z,97306.41
2023-01-30T10:44:14.387Z,97350.72
2023-01-30T10:47:23.089Z,97206.88
2023-01-30T10:50:23.511Z,97314.34
2023-01-30T10:53:37.731Z,97305.72
2023-01-30T10:56:45.260Z,97298.41
2023-01-30T10:59:41.041Z,97286.03
2023-01-30T11:02:56.583Z,97130.44
2023-01-30T11:05:54.530Z,97267.78
2023-01-30T11:08:40.112Z,97270.72
2023-01-30T11:11:29.770Z,97182.69
2023-01-30T11:14:15.735Z,97258.69
2023-01-30T11:17:02.732Z,97251.03
2023-01-30T11:20:02.174Z,97108.16
2023-01-30T11:23:08.594Z,97043.47
2023-01-30T11:26:10.491Z,97226.34
2023-01-30T11:28:56.712Z,97235.69
2023-01-30T11:31:42.625Z,97244.41
2023-01-30T11:34:28.297Z,97212.41
2023-01-30T11:37:30.637Z,97032.06
2023-01-30T11:40:19.746Z,97221.19
2023-01-30T11:43:10.915Z,97183.66
2023-01-30T11:45:56.452Z,97048.47
2023-01-30T11:49:35.931Z,97066.66
2023-01-30T11:52:00.843Z,97218.38
2023-01-30T11:54:49.002Z,97220.03
2023-01-30T11:57:43.858Z,97175.56
2023-01-30T12:00:40.076Z,97181.81
2023-01-30T12:03:27.266Z,97230.13
2023-01-30T12:06:22.612Z,97228.22
2023-01-30T12:09:35.515Z,97225.31
2023-01-30T12:12:46.174Z,97213.09
2023-01-30T12:15:34.430Z,97034.78
2023-01-30T12:18:26.452Z,97244.94
2023-01-30T12:21:23.891Z,97005.09
2023-01-30T12:24:09.527Z,97201.59
2023-01-30T12:27:19.486Z,97202.16
2023-01-30T12:30:31.710Z,97183.38
2023-01-30T12:33:21.062Z,97191.56
2023-01-30T12:36:37.577Z,97177.91
2023-01-30T12:39:34.230Z,97176.44
2023-01-30T12:42:25.298Z,97108.03
2023-01-30T12:45:32.837Z,96972.16
2023-01-30T12:48:18.103Z,96987.50
2023-01-30T12:51:49.725Z,97067.91
2023-01-30T12:54:53.554Z,97169.84
2023-01-30T12:57:47.704Z,97101.81
2023-01-30T13:01:17.304Z,97093.94
2023-01-30T13:04:13.962Z,97137.41
2023-01-30T13:07:23.612Z,97160.38
2023-01-30T13:10:24.300Z,97162.25
2023-01-30T13:13:23.717Z,97144.97
2023-01-30T13:16:24.418Z,97083.66
2023-01-30T13:19:25.448Z,97141.53
2023-01-30T13:22:18.098Z,97137.53
2023-01-30T13:25:18.848Z,97152.84
2023-01-30T13:28:14.331Z,97143.78
2023-01-30T13:31:01.588Z,97122.81
2023-01-30T13:33:50.886Z,97134.69
2023-01-30T13:36:54.665Z,97134.69
2023-01-30T13:40:02.614Z,96938.22
2023-01-30T13:43:08.121Z,97017.94
2023-01-30T13:45:58.881Z,97110.31
2023-01-30T13:49:13.221Z,97107.75
2023-01-30T13:52:48.157Z,97101.25
2023-01-30T13:56:02.520Z,97135.84
2023-01-30T13:59:11.267Z,97103.06
2023-01-30T14:02:02.049Z,97103.78
2023-01-30T14:04:51.602Z,97101.56
2023-01-30T14:07:42.201Z,97113.44
2023-01-30T14:10:27.918Z,97086.47
2023-01-30T14:13:16.066Z,97123.97
2023-01-30T14:16:04.748Z,97116.09
2023-01-30T14:18:50.677Z,96974.25
2023-01-30T14:21:38.524Z,97091.44
2023-01-30T14:24:25.481Z,97123.56
2023-01-30T14:27:32.054Z,97121.56
2023-01-30T14:30:36.734Z,96916.47
2023-01-30T14:33:22.371Z,97075.59
2023-01-30T14:36:14.309Z,97106.63
2023-01-30T14:39:50.960Z,97109.34
2023-01-30T14:42:36.774Z,97070.13
2023-01-30T14:45:52.179Z,97111.03
2023-01-30T14:48:49.733Z,96900.78
2023-01-30T14:51:37.231Z,97145.25
2023-01-30T14:54:41.909Z,97096.66
2023-01-30T14:57:32.961Z,97043.38
2023-01-30T15:00:21.044Z,97078.81
2023-01-30T15:03:15.697Z,96942.34
2023-01-30T15:06:01.408Z,97118.69
2023-01-30T15:08:47.659Z,96900.84
2023-01-30T15:11:36.455Z,97132.94
2023-01-30T15:14:31.021Z,96983.59
2023-01-30T15:17:38.450Z,97150.91
2023-01-30T15:20:59.972Z,97135.78
2023-01-30T15:23:51.236Z,97154.59
2023-01-30T15:26:55.830Z,97072.50
2023-01-30T15:30:22.757Z,97124.81
2023-01-30T15:33:29.472Z,97084.78
2023-01-30T15:36:36.673Z,97138.41
2023-01-30T15:39:25.584Z,97029.84
2023-01-30T15:42:16.306Z,97029.28
2023-01-30T15:45:19.329Z,97103.47
2023-01-30T15:48:29.039Z,96975.41
2023-01-30T15:51:18.691Z,97147.81
2023-01-30T15:54:11.070Z,97109.41
2023-01-30T15:56:59.462Z,97093.31
2023-01-30T15:59:45.050Z,97129.00
2023-01-30T16:02:32.928Z,97163.50
2023-01-30T16:05:25.440Z,97150.56
2023-01-30T16:08:22.239Z,96939.00
2023-01-30T16:11:10.395Z,96959.19
2023-01-30T16:13:56.100Z,97140.47
2023-01-30T16:17:04.030Z,97154.56
2023-01-30T16:19:50.108Z,97147.84
2023-01-30T16:22:35.765Z,96920.16
2023-01-30T16:25:29.875Z,97059.03
2023-01-30T16:28:23.379Z,97125.38
2023-01-30T16:31:11.104Z,97171.91
2023-01-30T16:33:56.855Z,96839.41
2023-01-30T16:36:42.052Z,97105.28
2023-01-30T16:39:37.730Z,96932.25
2023-01-30T16:42:26.620Z,97117.91
2023-01-30T16:45:19.702Z,97137.31
2023-01-30T16:48:18.323Z,96929.50
2023-01-30T16:51:20.843Z,96960.25
2023-01-30T16:54:24.311Z,97033.66
2023-01-30T16:57:27.763Z,97126.78
2023-01-30T17:00:31.665Z,97151.81
2023-01-30T17:03:25.022Z,96916.38
2023-01-30T17:06:23.335Z,97118.44
2023-01-30T17:09:38.567Z,97121.34
2023-01-30T17:12:27.307Z,97140.66
2023-01-30T17:15:12.710Z,97117.38
2023-01-30T17:17:58.633Z,97060.38
2023-01-30T17:20:47.660Z,97102.69
2023-01-30T17:23:33.685Z,97093.19
2023-01-30T17:26:20.145Z,97128.34
2023-01-30T17:29:11.928Z,97072.13
2023-01-30T17:32:11.030Z,97146.69
2023-01-30T17:34:59.728Z,97124.22
2023-01-30T17:37:59.539Z,97053.44
2023-01-30T17:40:49.352Z,96895.75
2023-01-30T17:43:34.853Z,97137.44
2023-01-30T17:46:24.925Z,97080.97
2023-01-30T17:49:22.949Z,97106.59
2023-01-30T17:52:09.026Z,97113.94
2023-01-30T17:54:54.567Z,96906.38
2023-01-30T17:57:43.044Z,97021.09
2023-01-30T18:00:28.746Z,97147.38
2023-01-30T18:03:14.773Z,97115.44
2023-01-30T18:06:00.973Z,97086.53
2023-01-30T18:08:46.715Z,96954.47
2023-01-30T18:11:32.779Z,97046.75
2023-01-30T18:14:18.944Z,97072.66
2023-01-30T18:17:04.884Z,97129.59
2023-01-30T18:19:50.423Z,97139.06
2023-01-30T18:22:36.198Z,97134.34
2023-01-30T18:25:22.049Z,97109.69
2023-01-30T18:28:10.396Z,97101.69
2023-01-30T18:30:56.353Z,96914.00
2023-01-30T18:33:44.710Z,97102.47
2023-01-30T18:36:33.136Z,96947.91
2023-01-30T18:39:18.793Z,97145.44
2023-01-30T18:42:05.594Z,96935.72
2023-01-30T18:44:51.116Z,97104.69
2023-01-30T18:47:36.588Z,97142.88
2023-01-30T18:50:22.094Z,97074.03
2023-01-30T18:53:08.462Z,97070.34
2023-01-30T18:55:53.839Z,96904.97
2023-01-30T18:58:39.900Z,97120.63
2023-01-30T19:01:27.642Z,97071.53
2023-01-30T19:04:13.199Z,97104.53
2023-01-30T19:06:58.518Z,97116.81
2023-01-30T19:09:43.974Z,97070.44
2023-01-30T19:12:48.594Z,96953.16
2023-01-30T19:15:35.845Z,96926.56
2023-01-30T19:18:21.462Z,96990.06
2023-01-30T19:21:06.740Z,96916.19
2023-01-30T19:23:52.441Z,96928.34
2023-01-30T19:26:38.027Z,97095.50
2023-01-30T19:29:23.755Z,97126.22
2023-01-30T19:32:09.636Z,97037.56
2023-01-30T19:34:55.663Z,97116.63
2023-01-30T19:37:41.705Z,97119.94
2023-01-30T19:40:28.060Z,97112.22
2023-01-30T19:43:13.974Z,97129.19
2023-01-30T19:46:00.681Z,97124.06
2023-01-30T19:48:47.073Z,97018.78
2023-01-30T19:51:34.848Z,97122.16
2023-01-30T19:54:22.539Z,97136.38
2023-01-30T19:57:08.366Z,97149.50
2023-01-30T19:59:53.699Z,96938.00
2023-01-30T20:02:39.570Z,97069.59
2023-01-30T20:05:25.405Z,97092.63
2023-01-30T20:08:25.384Z,97121.88
2023-01-30T20:11:14.204Z,97060.09
2023-01-30T20:14:01.334Z,97092.25
2023-01-30T20:16:47.338Z,97075.09
2023-01-30T20:19:32.877Z,97123.34
2023-01-30T20:22:18.563Z,97115.34
2023-01-30T20:25:04.271Z,97069.63
2023-01-30T20:27:50.064Z,96908.94
2023-01-30T20:30:35.467Z,97126.25
2023-01-30T20:33:20.890Z,97075.38
2023-01-30T20:36:09.425Z,97037.72
2023-01-30T20:38:56.172Z,97017.84
2023-01-30T20:41:43.432Z,97153.25
2023-01-30T20:44:29.543Z,97110.28
2023-01-30T20:47:14.920Z,97147.81
2023-01-30T20:50:00.316Z,96927.94
2023-01-30T20:52:48.761Z,97170.69
2023-01-30T20:55:35.030Z,97060.16
2023-01-30T20:58:20.709Z,96935.25
2023-01-30T21:01:09.026Z,97143.63
2023-01-30T21:03:54.846Z,97145.94
2023-01-30T21:06:45.408Z,97125.31
2023-01-30T21:09:31.821Z,97047.66
2023-01-30T21:12:17.119Z,97166.31
2023-01-30T21:15:02.650Z,97095.31
2023-01-30T21:17:48.085Z,97118.34
2023-01-30T21:20:33.421Z,97125.88
2023-01-30T21:23:18.757Z,96955.22
2023-01-30T21:26:09.087Z,96961.59
2023-01-30T21:28:57.447Z,97153.25
2023-01-30T21:31:44.329Z,97016.59
2023-01-30T21:34:30.147Z,96968.88
2023-01-30T21:37:34.172Z,97165.09
2023-01-30T21:40:39.067Z,97113.84
2023-01-30T21:43:24.689Z,97132.19
2023-01-30T21:46:16.485Z,97139.81
2023-01-30T21:49:02.378Z,97166.75
2023-01-30T21:51:49.150Z,97143.84
2023-01-30T21:54:35.114Z,97049.59
2023-01-30T21:57:21.252Z,96984.25
2023-01-30T22:00:07.498Z,97157.75
2023-01-30T22:02:52.977Z,97112.44
2023-01-30T22:05:38.801Z,97073.66
2023-01-30T22:08:24.230Z,96994.47
2023-01-30T22:11:16.332Z,97184.34
2023-01-30T22:14:02.398Z,97168.69
2023-01-30T22:16:48.002Z,97102.59
2023-01-30T22:19:35.317Z,96959.63
2023-01-30T22:22:24.601Z,96922.88
2023-01-30T22:25:10.327Z,97171.63
2023-01-30T22:27:55.975Z,97119.63
2023-01-30T22:30:41.768Z,97143.81
2023-01-30T22:33:27.236Z,96942.06
2023-01-30T22:36:13.206Z,97146.34
2023-01-30T22:38:58.920Z,97182.97
2023-01-30T22:41:44.245Z,97111.16
2023-01-30T22:44:30.240Z,97153.53
2023-01-30T22:47:15.585Z,97151.31
2023-01-30T22:50:01.301Z,96969.72
2023-01-30T22:52:46.577Z,97119.16
2023-01-30T22:55:34.894Z,97169.38
2023-01-30T22:58:20.575Z,96993.59
2023-01-30T23:01:13.542Z,97185.22
2023-01-30T23:04:04.768Z,97153.16
2023-01-30T23:06:53.685Z,96993.59
2023-01-30T23:09:39.342Z,97000.34
2023-01-30T23:12:43.305Z,97008.91
2023-01-30T23:15:28.571Z,97158.84
2023-01-30T23:18:33.234Z,97115.97
2023-01-30T23:21:19.181Z,96981.25
2023-01-30T23:24:08.444Z,96942.22
2023-01-30T23:26:54.054Z,97126.25
2023-01-30T23:29:39.402Z,97149.63
2023-01-30T23:32:24.764Z,96999.56
2023-01-30T23:35:10.168Z,97153.59
2023-01-30T23:38:14.106Z,96982.25
2023-01-30T23:41:14.196Z,97077.06
2023-01-30T23:44:00.575Z,97125.47
2023-01-30T23:46:46.454Z,97086.50
2023-01-30T23:49:31.803Z,97117.09
2023-01-30T23:52:17.060Z,97168.25
2023-01-30T23:55:02.313Z,97020.78
2023-01-30T23:57:47.664Z,97104.03
